sensor_id;sensor_type;location;lat;lon;timestamp;pressure;altitude;pressure_sealevel;temperature;humidity
73700;BME280;62005;50.082;8.988;2024-02-15T00:00:16;100952.09;;;11.30;100.00
73700;BME280;62005;50.082;8.988;2024-02-15T00:02:43;100952.72;;;11.26;100.00
73700;BME280;62005;50.082;8.988;2024-02-15T00:05:13;100945.22;;;11.28;100.00
73700;BME280;62005;50.082;8.988;2024-02-15T00:07:39;100945.22;;;11.28;100.00
73700;BME280;62005;50.082;8.988;2024-02-15T00:10:05;100948.97;;;11.27;100.00
73700;BME280;62005;50.082;8.988;2024-02-15T00:12:31;100947.50;;;11.31;100.00
73700;BME280;62005;50.082;8.988;2024-02-15T00:14:57;100948.97;;;11.27;100.00
73700;BME280;62005;50.082;8.988;2024-02-15T00:17:24;100948.75;;;11.35;100.00
73700;BME280;62005;50.082;8.988;2024-02-15T00:19:50;100941.44;;;11.29;100.00
73700;BME280;62005;50.082;8.988;2024-02-15T00:22:19;100944.34;;;11.34;100.00
73700;BME280;62005;50.082;8.988;2024-02-15T00:24:46;100941.44;;;11.29;100.00
73700;BME280;62005;50.082;8.988;2024-02-15T00:27:14;100943.53;;;11.33;100.00
73700;BME280;62005;50.082;8.988;2024-02-15T00:29:40;100940.63;;;11.28;100.00
73700;BME280;62005;50.082;8.988;2024-02-15T00:32:06;100947.72;;;11.29;100.00
73700;BME280;62005;50.082;8.988;2024-02-15T00:34:32;100940.44;;;11.30;100.00
73700;BME280;62005;50.082;8.988;2024-02-15T00:36:57;100914.03;;;11.12;100.00
73700;BME280;62005;50.082;8.988;2024-02-15T00:39:22;100936.91;;;11.23;100.00
73700;BME280;62005;50.082;8.988;2024-02-15T00:41:48;100926.91;;;11.23;100.00
73700;BME280;62005;50.082;8.988;2024-02-15T00:44:14;100941.88;;;11.26;100.00
73700;BME280;62005;50.082;8.988;2024-02-15T00:46:39;100940.22;;;11.25;100.00
73700;BME280;62005;50.082;8.988;2024-02-15T00:49:06;100948.53;;;11.30;100.00
73700;BME280;62005;50.082;8.988;2024-02-15T00:51:33;100938.97;;;11.27;100.00
73700;BME280;62005;50.082;8.988;2024-02-15T00:54:00;100935.25;;;11.22;100.00
73700;BME280;62005;50.082;8.988;2024-02-15T00:56:25;100935.25;;;11.22;100.00
73700;BME280;62005;50.082;8.988;2024-02-15T00:58:51;100946.88;;;11.29;100.00
73700;BME280;62005;50.082;8.988;2024-02-15T01:01:16;100946.88;;;11.29;100.00
73700;BME280;62005;50.082;8.988;2024-02-15T01:03:42;100943.78;;;11.25;100.00
73700;BME280;62005;50.082;8.988;2024-02-15T01:06:07;100945.66;;;11.25;100.00
73700;BME280;62005;50.082;8.988;2024-02-15T01:08:33;100945.66;;;11.25;100.00
73700;BME280;62005;50.082;8.988;2024-02-15T01:10:59;100945.22;;;11.28;100.00
73700;BME280;62005;50.082;8.988;2024-02-15T01:13:24;100938.38;;;11.25;100.00
73700;BME280;62005;50.082;8.988;2024-02-15T01:15:50;100926.50;;;11.20;100.00
73700;BME280;62005;50.082;8.988;2024-02-15T01:18:16;100953.53;;;11.33;100.00
73700;BME280;62005;50.082;8.988;2024-02-15T01:20:41;100934.81;;;11.25;100.00
73700;BME280;62005;50.082;8.988;2024-02-15T01:23:07;100948.94;;;11.33;100.00
73700;BME280;62005;50.082;8.988;2024-02-15T01:25:33;100938.16;;;11.27;100.00
73700;BME280;62005;50.082;8.988;2024-02-15T01:27:58;100938.97;;;11.27;100.00
73700;BME280;62005;50.082;8.988;2024-02-15T01:30:24;100943.34;;;11.28;100.00
73700;BME280;62005;50.082;8.988;2024-02-15T01:32:49;100939.19;;;11.26;100.00
73700;BME280;62005;50.082;8.988;2024-02-15T01:35:15;100944.38;;;11.27;100.00
73700;BME280;62005;50.082;8.988;2024-02-15T01:37:40;100924.84;;;11.19;100.00
73700;BME280;62005;50.082;8.988;2024-02-15T01:40:06;100938.16;;;11.27;100.00
73700;BME280;62005;50.082;8.988;2024-02-15T01:42:32;100939.19;;;11.26;100.00
73700;BME280;62005;50.082;8.988;2024-02-15T01:44:57;100945.22;;;11.28;100.00
73700;BME280;62005;50.082;8.988;2024-02-15T01:47:23;100946.06;;;11.28;100.00
73700;BME280;62005;50.082;8.988;2024-02-15T01:49:50;100946.88;;;11.29;100.00
73700;BME280;62005;50.082;8.988;2024-02-15T01:52:17;100936.06;;;11.22;100.00
73700;BME280;62005;50.082;8.988;2024-02-15T01:54:44;100931.91;;;11.20;100.00
73700;BME280;62005;50.082;8.988;2024-02-15T01:57:10;100929.00;;;11.21;100.00
73700;BME280;62005;50.082;8.988;2024-02-15T01:59:36;100944.59;;;11.26;100.00
73700;BME280;62005;50.082;8.988;2024-02-15T02:02:02;100934.00;;;11.18;100.00
73700;BME280;62005;50.082;8.988;2024-02-15T02:04:29;100937.97;;;11.22;100.00
73700;BME280;62005;50.082;8.988;2024-02-15T02:06:57;100927.34;;;11.20;100.00
73700;BME280;62005;50.082;8.988;2024-02-15T02:09:24;100926.94;;;11.17;100.00
73700;BME280;62005;50.082;8.988;2024-02-15T02:11:50;100928.16;;;11.21;100.00
73700;BME280;62005;50.082;8.988;2024-02-15T02:14:16;100932.53;;;11.22;100.00
73700;BME280;62005;50.082;8.988;2024-02-15T02:16:42;100929.84;;;11.22;100.00
73700;BME280;62005;50.082;8.988;2024-02-15T02:19:07;100917.34;;;11.21;100.00
73700;BME280;62005;50.082;8.988;2024-02-15T02:21:35;100931.91;;;11.20;100.00
73700;BME280;62005;50.082;8.988;2024-02-15T02:24:02;100928.16;;;11.21;100.00
73700;BME280;62005;50.082;8.988;2024-02-15T02:26:34;100927.56;;;11.19;100.00
73700;BME280;62005;50.082;8.988;2024-02-15T02:29:02;100919.44;;;11.19;100.00
73700;BME280;62005;50.082;8.988;2024-02-15T02:31:35;100914.44;;;11.16;100.00
73700;BME280;62005;50.082;8.988;2024-02-15T02:34:01;100918.59;;;11.25;100.00
73700;BME280;62005;50.082;8.988;2024-02-15T02:36:27;100917.34;;;11.21;100.00
73700;BME280;62005;50.082;8.988;2024-02-15T02:38:54;100917.75;;;11.24;100.00
73700;BME280;62005;50.082;8.988;2024-02-15T02:41:20;100919.00;;;11.22;100.00
73700;BME280;62005;50.082;8.988;2024-02-15T02:43:46;100923.16;;;11.24;100.00
73700;BME280;62005;50.082;8.988;2024-02-15T02:46:12;100929.41;;;11.25;100.00
73700;BME280;62005;50.082;8.988;2024-02-15T02:48:38;100917.75;;;11.18;100.00
73700;BME280;62005;50.082;8.988;2024-02-15T02:51:04;100914.03;;;11.19;100.00
73700;BME280;62005;50.082;8.988;2024-02-15T02:53:30;100912.53;;;11.23;100.00
73700;BME280;62005;50.082;8.988;2024-02-15T02:55:58;100908.63;;;11.19;100.00
73700;BME280;62005;50.082;8.988;2024-02-15T02:58:24;100907.56;;;11.20;100.00
73700;BME280;62005;50.082;8.988;2024-02-15T03:00:50;100912.75;;;11.21;100.00
73700;BME280;62005;50.082;8.988;2024-02-15T03:03:17;100897.81;;;11.19;100.00
73700;BME280;62005;50.082;8.988;2024-02-15T03:05:42;100904.84;;;11.20;100.00
73700;BME280;62005;50.082;8.988;2024-02-15T03:08:09;100908.19;;;11.22;100.00
73700;BME280;62005;50.082;8.988;2024-02-15T03:10:34;100908.63;;;11.19;100.00
73700;BME280;62005;50.082;8.988;2024-02-15T03:13:00;100912.34;;;11.18;100.00
73700;BME280;62005;50.082;8.988;2024-02-15T03:15:25;100901.16;;;11.08;100.00
73700;BME280;62005;50.082;8.988;2024-02-15T03:17:51;100917.13;;;11.16;100.00
73700;BME280;62005;50.082;8.988;2024-02-15T03:20:17;100913.22;;;11.12;100.00
73700;BME280;62005;50.082;8.988;2024-02-15T03:22:51;100916.75;;;11.19;100.00
73700;BME280;62005;50.082;8.988;2024-02-15T03:25:18;100914.44;;;11.16;100.00
73700;BME280;62005;50.082;8.988;2024-02-15T03:27:43;100918.19;;;11.15;100.00
73700;BME280;62005;50.082;8.988;2024-02-15T03:30:08;100906.13;;;11.11;100.00
73700;BME280;62005;50.082;8.988;2024-02-15T03:32:35;100898.03;;;11.04;100.00
73700;BME280;62005;50.082;8.988;2024-02-15T03:35:01;100908.63;;;11.12;100.00
73700;BME280;62005;50.082;8.988;2024-02-15T03:37:26;100913.66;;;11.09;100.00
73700;BME280;62005;50.082;8.988;2024-02-15T03:39:52;100897.81;;;11.06;100.00
73700;BME280;62005;50.082;8.988;2024-02-15T03:42:17;100902.00;;;11.02;100.00
73700;BME280;62005;50.082;8.988;2024-02-15T03:44:43;100887.22;;;10.98;100.00
73700;BME280;62005;50.082;8.988;2024-02-15T03:47:08;100905.34;;;11.04;100.00
73700;BME280;62005;50.082;8.988;2024-02-15T03:49:33;100893.69;;;10.97;100.00
73700;BME280;62005;50.082;8.988;2024-02-15T03:51:59;100907.41;;;11.02;100.00
73700;BME280;62005;50.082;8.988;2024-02-15T03:54:27;100909.50;;;11.00;100.00
73700;BME280;62005;50.082;8.988;2024-02-15T03:56:55;100902.84;;;10.96;100.00
73700;BME280;62005;50.082;8.988;2024-02-15T03:59:22;100895.34;;;10.98;100.00
73700;BME280;62005;50.082;8.988;2024-02-15T04:01:55;100914.91;;;11.00;100.00
73700;BME280;62005;50.082;8.988;2024-02-15T04:04:21;100904.09;;;11.00;100.00
73700;BME280;62005;50.082;8.988;2024-02-15T04:06:49;100900.31;;;11.01;100.00
73700;BME280;62005;50.082;8.988;2024-02-15T04:09:15;100905.34;;;11.04;100.00
73700;BME280;62005;50.082;8.988;2024-02-15T04:11:42;100903.22;;;11.06;100.00
73700;BME280;62005;50.082;8.988;2024-02-15T04:14:08;100915.28;;;11.10;100.00
73700;BME280;62005;50.082;8.988;2024-02-15T04:16:34;100909.88;;;11.10;100.00
73700;BME280;62005;50.082;8.988;2024-02-15T04:19:01;100907.81;;;11.12;100.00
73700;BME280;62005;50.082;8.988;2024-02-15T04:21:26;100906.13;;;11.11;100.00
73700;BME280;62005;50.082;8.988;2024-02-15T04:23:53;100900.72;;;11.11;100.00
73700;BME280;62005;50.082;8.988;2024-02-15T04:26:19;100904.03;;;11.13;100.00
73700;BME280;62005;50.082;8.988;2024-02-15T04:28:45;100899.06;;;11.10;100.00
73700;BME280;62005;50.082;8.988;2024-02-15T04:31:17;100896.16;;;11.05;100.00
73700;BME280;62005;50.082;8.988;2024-02-15T04:33:43;100898.63;;;11.13;100.00
73700;BME280;62005;50.082;8.988;2024-02-15T04:36:08;100909.84;;;11.23;100.00
73700;BME280;62005;50.082;8.988;2024-02-15T04:38:34;100906.94;;;11.18;100.00
73700;BME280;62005;50.082;8.988;2024-02-15T04:41:00;100906.50;;;11.21;100.00
73700;BME280;62005;50.082;8.988;2024-02-15T04:43:26;100907.75;;;11.25;100.00
73700;BME280;62005;50.082;8.988;2024-02-15T04:45:52;100907.97;;;11.23;100.00
73700;BME280;62005;50.082;8.988;2024-02-15T04:48:18;100917.72;;;11.31;100.00
73700;BME280;62005;50.082;8.988;2024-02-15T04:50:44;100904.84;;;11.26;100.00
73700;BME280;62005;50.082;8.988;2024-02-15T04:53:10;100908.16;;;11.28;100.00
73700;BME280;62005;50.082;8.988;2024-02-15T04:55:36;100905.06;;;11.25;100.00
73700;BME280;62005;50.082;8.988;2024-02-15T04:58:02;100904.41;;;11.29;100.00
73700;BME280;62005;50.082;8.988;2024-02-15T05:00:29;100895.69;;;11.21;100.00
73700;BME280;62005;50.082;8.988;2024-02-15T05:02:55;100891.75;;;11.17;100.00
73700;BME280;62005;50.082;8.988;2024-02-15T05:05:20;100902.34;;;11.25;100.00
73700;BME280;62005;50.082;8.988;2024-02-15T05:07:47;100903.56;;;11.29;100.00
73700;BME280;62005;50.082;8.988;2024-02-15T05:10:14;100899.41;;;11.26;100.00
73700;BME280;62005;50.082;8.988;2024-02-15T05:12:41;100902.97;;;11.27;100.00
73700;BME280;62005;50.082;8.988;2024-02-15T05:15:08;100892.53;;;11.24;100.00
73700;BME280;62005;50.082;8.988;2024-02-15T05:17:39;100903.56;;;11.29;100.00
73700;BME280;62005;50.082;8.988;2024-02-15T05:20:09;100896.94;;;11.25;100.00
73700;BME280;62005;50.082;8.988;2024-02-15T05:22:39;100886.75;;;11.20;100.00
73700;BME280;62005;50.082;8.988;2024-02-15T05:25:08;100905.69;;;11.27;100.00
73700;BME280;62005;50.082;8.988;2024-02-15T05:27:34;100889.03;;;11.23;100.00
73700;BME280;62005;50.082;8.988;2024-02-15T05:30:01;100889.84;;;11.24;100.00
73700;BME280;62005;50.082;8.988;2024-02-15T05:32:27;100884.28;;;11.19;100.00
73700;BME280;62005;50.082;8.988;2024-02-15T05:34:53;100885.91;;;11.20;100.00
73700;BME280;62005;50.082;8.988;2024-02-15T05:37:20;100878.22;;;11.17;100.00
73700;BME280;62005;50.082;8.988;2024-02-15T05:39:45;100883.84;;;11.22;100.00
73700;BME280;62005;50.082;8.988;2024-02-15T05:42:11;100881.94;;;11.22;100.00
73700;BME280;62005;50.082;8.988;2024-02-15T05:44:36;100885.28;;;11.18;100.00
73700;BME280;62005;50.082;8.988;2024-02-15T05:47:02;100884.88;;;11.21;100.00
73700;BME280;62005;50.082;8.988;2024-02-15T05:49:27;100871.13;;;11.16;100.00
73700;BME280;62005;50.082;8.988;2024-02-15T05:51:53;100882.34;;;11.26;100.00
73700;BME280;62005;50.082;8.988;2024-02-15T05:54:21;100882.34;;;11.26;100.00
73700;BME280;62005;50.082;8.988;2024-02-15T05:56:50;100874.66;;;11.23;100.00
73700;BME280;62005;50.082;8.988;2024-02-15T05:59:19;100874.88;;;11.21;100.00
73700;BME280;62005;50.082;8.988;2024-02-15T06:01:45;100877.38;;;11.23;100.00
73700;BME280;62005;50.082;8.988;2024-02-15T06:04:14;100875.72;;;11.22;100.00
73700;BME280;62005;50.082;8.988;2024-02-15T06:06:40;100868.19;;;11.24;100.00
73700;BME280;62005;50.082;8.988;2024-02-15T06:09:05;100870.75;;;11.19;100.00
73700;BME280;62005;50.082;8.988;2024-02-15T06:11:31;100868.84;;;11.19;100.00
73700;BME280;62005;50.082;8.988;2024-02-15T06:13:56;100873.59;;;11.24;100.00
73700;BME280;62005;50.082;8.988;2024-02-15T06:16:22;100882.34;;;11.26;100.00
73700;BME280;62005;50.082;8.988;2024-02-15T06:18:47;100869.06;;;11.18;100.00
73700;BME280;62005;50.082;8.988;2024-02-15T06:21:13;100860.31;;;11.16;100.00
73700;BME280;62005;50.082;8.988;2024-02-15T06:23:39;100882.16;;;11.21;100.00
73700;BME280;62005;50.082;8.988;2024-02-15T06:26:04;100887.13;;;11.24;100.00
73700;BME280;62005;50.082;8.988;2024-02-15T06:28:30;100886.53;;;11.22;100.00
73700;BME280;62005;50.082;8.988;2024-02-15T06:31:14;100895.69;;;11.21;100.00
73700;BME280;62005;50.082;8.988;2024-02-15T06:33:59;100895.69;;;11.21;100.00
73700;BME280;62005;50.082;8.988;2024-02-15T06:36:47;100885.28;;;11.18;100.00
73700;BME280;62005;50.082;8.988;2024-02-15T06:39:31;100899.88;;;11.17;100.00
73700;BME280;62005;50.082;8.988;2024-02-15T06:42:04;100892.78;;;11.16;100.00
73700;BME280;62005;50.082;8.988;2024-02-15T06:44:29;100902.81;;;11.15;100.00
73700;BME280;62005;50.082;8.988;2024-02-15T06:46:55;100895.72;;;11.08;100.00
73700;BME280;62005;50.082;8.988;2024-02-15T06:49:22;100880.38;;;11.02;100.00
73700;BME280;62005;50.082;8.988;2024-02-15T06:51:48;100900.72;;;11.11;100.00
73700;BME280;62005;50.082;8.988;2024-02-15T06:54:14;100897.00;;;11.05;100.00
73700;BME280;62005;50.082;8.988;2024-02-15T06:56:39;100870.81;;;10.93;100.00
73700;BME280;62005;50.082;8.988;2024-02-15T06:59:05;100896.97;;;11.12;100.00
73700;BME280;62005;50.082;8.988;2024-02-15T07:01:32;100897.81;;;11.06;100.00
73700;BME280;62005;50.082;8.988;2024-02-15T07:03:59;100879.97;;;10.98;100.00
73700;BME280;62005;50.082;8.988;2024-02-15T07:06:25;100894.06;;;11.13;100.00
73700;BME280;62005;50.082;8.988;2024-02-15T07:08:52;100902.81;;;11.15;100.00
73700;BME280;62005;50.082;8.988;2024-02-15T07:11:20;100896.97;;;11.12;100.00
73700;BME280;62005;50.082;8.988;2024-02-15T07:13:47;100886.16;;;11.12;100.00
73700;BME280;62005;50.082;8.988;2024-02-15T07:16:12;100885.72;;;11.15;100.00
73700;BME280;62005;50.082;8.988;2024-02-15T07:18:38;100896.13;;;11.18;100.00
73700;BME280;62005;50.082;8.988;2024-02-15T07:21:04;100887.38;;;11.16;100.00
73700;BME280;62005;50.082;8.988;2024-02-15T07:23:36;100884.66;;;11.16;100.00
73700;BME280;62005;50.082;8.988;2024-02-15T07:26:01;100888.22;;;11.16;100.00
73700;BME280;62005;50.082;8.988;2024-02-15T07:28:29;100872.88;;;11.04;100.00
73700;BME280;62005;50.082;8.988;2024-02-15T07:30:56;100885.72;;;11.15;100.00
73700;BME280;62005;50.082;8.988;2024-02-15T07:33:24;100897.38;;;11.22;100.00
73700;BME280;62005;50.082;8.988;2024-02-15T07:35:50;100858.91;;;11.07;100.00
73700;BME280;62005;50.082;8.988;2024-02-15T07:38:19;100888.81;;;11.25;100.00
73700;BME280;62005;50.082;8.988;2024-02-15T07:40:45;100867.03;;;11.07;100.00
73700;BME280;62005;50.082;8.988;2024-02-15T07:43:10;100856.22;;;11.07;100.00
73700;BME280;62005;50.082;8.988;2024-02-15T07:45:36;100858.03;;;11.13;100.00
73700;BME280;62005;50.082;8.988;2024-02-15T07:48:03;100857.03;;;11.14;100.00
73700;BME280;62005;50.082;8.988;2024-02-15T07:50:32;100889.19;;;11.35;100.00
73700;BME280;62005;50.082;8.988;2024-02-15T07:52:57;100854.50;;;11.19;100.00
73700;BME280;62005;50.082;8.988;2024-02-15T07:55:23;100891.47;;;11.38;100.00
73700;BME280;62005;50.082;8.988;2024-02-15T07:57:50;100879.00;;;11.37;100.00
73700;BME280;62005;50.082;8.988;2024-02-15T08:00:19;100869.84;;;11.31;100.00
73700;BME280;62005;50.082;8.988;2024-02-15T08:02:45;100877.09;;;11.37;100.00
73700;BME280;62005;50.082;8.988;2024-02-15T08:05:12;100886.84;;;11.45;100.00
73700;BME280;62005;50.082;8.988;2024-02-15T08:07:46;100879.34;;;11.47;100.00
73700;BME280;62005;50.082;8.988;2024-02-15T08:10:15;100889.31;;;11.53;100.00
73700;BME280;62005;50.082;8.988;2024-02-15T08:12:44;100859.78;;;11.45;100.00
73700;BME280;62005;50.082;8.988;2024-02-15T08:15:11;100879.28;;;11.60;100.00
73700;BME280;62005;50.082;8.988;2024-02-15T08:17:41;100866.34;;;11.62;100.00
73700;BME280;62005;50.082;8.988;2024-02-15T08:20:10;100886.91;;;11.76;100.00
73700;BME280;62005;50.082;8.988;2024-02-15T08:22:36;100855.13;;;11.65;100.00
73700;BME280;62005;50.082;8.988;2024-02-15T08:25:10;100879.78;;;11.88;100.00
73700;BME280;62005;50.082;8.988;2024-02-15T08:27:44;100875.38;;;11.87;100.00
73700;BME280;62005;50.082;8.988;2024-02-15T08:30:15;100844.66;;;11.75;100.00
73700;BME280;62005;50.082;8.988;2024-02-15T08:32:44;100838.88;;;11.65;100.00
73700;BME280;62005;50.082;8.988;2024-02-15T08:35:13;100863.94;;;11.85;100.00
73700;BME280;62005;50.082;8.988;2024-02-15T08:37:40;100858.16;;;11.82;100.00
73700;BME280;62005;50.082;8.988;2024-02-15T08:40:08;100865.78;;;11.91;100.00
73700;BME280;62005;50.082;8.988;2024-02-15T08:42:42;100844.66;;;11.75;100.00
73700;BME280;62005;50.082;8.988;2024-02-15T08:45:08;100896.56;;;12.03;100.00
73700;BME280;62005;50.082;8.988;2024-02-15T08:47:38;100868.50;;;11.91;100.00
73700;BME280;62005;50.082;8.988;2024-02-15T08:50:05;100880.28;;;12.03;100.00
73700;BME280;62005;50.082;8.988;2024-02-15T08:52:31;100889.63;;;12.07;100.00
73700;BME280;62005;50.082;8.988;2024-02-15T08:54:56;100890.25;;;12.09;100.00
73700;BME280;62005;50.082;8.988;2024-02-15T08:57:24;100895.22;;;12.12;100.00
73700;BME280;62005;50.082;8.988;2024-02-15T08:59:51;100894.78;;;12.15;100.00
73700;BME280;62005;50.082;8.988;2024-02-15T09:02:17;100876.53;;;12.04;100.00
73700;BME280;62005;50.082;8.988;2024-02-15T09:04:43;100836.84;;;11.85;100.00
73700;BME280;62005;50.082;8.988;2024-02-15T09:07:08;100870.03;;;12.05;100.00
73700;BME280;62005;50.082;8.988;2024-02-15T09:09:34;100830.84;;;11.83;100.00
73700;BME280;62005;50.082;8.988;2024-02-15T09:12:02;100840.78;;;11.89;100.00
73700;BME280;62005;50.082;8.988;2024-02-15T09:14:33;100853.59;;;12.00;100.00
73700;BME280;62005;50.082;8.988;2024-02-15T09:17:00;100827.00;;;11.91;100.00
73700;BME280;62005;50.082;8.988;2024-02-15T09:19:25;100850.63;;;12.08;100.00
73700;BME280;62005;50.082;8.988;2024-02-15T09:21:51;100853.50;;;12.13;100.00
73700;BME280;62005;50.082;8.988;2024-02-15T09:24:22;100880.84;;;12.36;100.00
73700;BME280;62005;50.082;8.988;2024-02-15T09:26:51;100844.50;;;12.19;100.00
73700;BME280;62005;50.082;8.988;2024-02-15T09:29:20;100883.28;;;12.44;100.00
73700;BME280;62005;50.082;8.988;2024-02-15T09:31:49;100869.13;;;12.42;100.00
73700;BME280;62005;50.082;8.988;2024-02-15T09:34:14;100872.38;;;12.51;100.00
73700;BME280;62005;50.082;8.988;2024-02-15T09:36:39;100869.66;;;12.51;100.00
73700;BME280;62005;50.082;8.988;2024-02-15T09:39:05;100871.09;;;12.53;100.00
73700;BME280;62005;50.082;8.988;2024-02-15T09:41:31;100845.75;;;12.41;100.00
73700;BME280;62005;50.082;8.988;2024-02-15T09:43:57;100850.91;;;12.49;100.00
73700;BME280;62005;50.082;8.988;2024-02-15T09:46:24;100840.50;;;12.46;100.00
73700;BME280;62005;50.082;8.988;2024-02-15T09:48:55;100863.13;;;12.58;100.00
73700;BME280;62005;50.082;8.988;2024-02-15T09:51:25;100870.09;;;12.72;100.00
73700;BME280;62005;50.082;8.988;2024-02-15T09:53:51;100851.34;;;12.64;100.00
73700;BME280;62005;50.082;8.988;2024-02-15T09:56:17;100860.88;;;12.73;100.00
73700;BME280;62005;50.082;8.988;2024-02-15T09:58:43;100855.44;;;12.73;100.00
73700;BME280;62005;50.082;8.988;2024-02-15T10:01:10;100863.28;;;12.81;100.00
73700;BME280;62005;50.082;8.988;2024-02-15T10:03:37;100859.53;;;12.82;100.00
73700;BME280;62005;50.082;8.988;2024-02-15T10:06:05;100842.97;;;12.72;100.00
73700;BME280;62005;50.082;8.988;2024-02-15T10:08:31;100843.69;;;12.79;100.00
73700;BME280;62005;50.082;8.988;2024-02-15T10:11:07;100867.31;;;12.97;100.00
73700;BME280;62005;50.082;8.988;2024-02-15T10:13:34;100828.63;;;12.83;100.00
73700;BME280;62005;50.082;8.988;2024-02-15T10:15:59;100839.03;;;12.86;100.00
73700;BME280;62005;50.082;8.988;2024-02-15T10:18:38;100833.75;;;12.91;100.00
73700;BME280;62005;50.082;8.988;2024-02-15T10:21:04;100836.16;;;12.99;100.00
73700;BME280;62005;50.082;8.988;2024-02-15T10:23:29;100842.84;;;13.03;100.00
73700;BME280;62005;50.082;8.988;2024-02-15T10:25:55;100849.59;;;13.13;100.00
73700;BME280;62005;50.082;8.988;2024-02-15T10:28:21;100818.41;;;13.03;100.00
73700;BME280;62005;50.082;8.988;2024-02-15T10:30:51;100851.09;;;13.27;100.00
73700;BME280;62005;50.082;8.988;2024-02-15T10:33:28;100840.72;;;13.24;100.00
73700;BME280;62005;50.082;8.988;2024-02-15T10:38:39;100836.75;;;13.38;100.00
73700;BME280;62005;50.082;8.988;2024-02-15T10:41:06;100796.91;;;13.20;100.00
73700;BME280;62005;50.082;8.988;2024-02-15T10:43:33;100833.25;;;13.49;100.00
73700;BME280;62005;50.082;8.988;2024-02-15T10:46:00;100810.94;;;13.47;100.00
73700;BME280;62005;50.082;8.988;2024-02-15T10:48:26;100795.56;;;13.41;100.00
73700;BME280;62005;50.082;8.988;2024-02-15T10:50:56;100788.47;;;13.40;100.00
73700;BME280;62005;50.082;8.988;2024-02-15T10:53:31;100821.75;;;13.65;100.00
73700;BME280;62005;50.082;8.988;2024-02-15T10:56:21;100799.28;;;13.58;100.00
73700;BME280;62005;50.082;8.988;2024-02-15T10:58:58;100826.50;;;13.81;100.00
73700;BME280;62005;50.082;8.988;2024-02-15T11:01:26;100810.69;;;13.78;100.00
73700;BME280;62005;50.082;8.988;2024-02-15T11:04:00;100808.56;;;13.80;100.00
73700;BME280;62005;50.082;8.988;2024-02-15T11:06:27;100802.19;;;13.86;100.00
73700;BME280;62005;50.082;8.988;2024-02-15T11:08:54;100811.75;;;13.88;100.00
73700;BME280;62005;50.082;8.988;2024-02-15T11:11:21;100799.59;;;13.91;100.00
73700;BME280;62005;50.082;8.988;2024-02-15T11:13:47;100772.63;;;13.78;100.00
73700;BME280;62005;50.082;8.988;2024-02-15T11:16:41;100804.56;;;13.94;100.00
73700;BME280;62005;50.082;8.988;2024-02-15T11:19:06;100783.75;;;13.88;100.00
73700;BME280;62005;50.082;8.988;2024-02-15T11:21:54;100789.47;;;13.98;100.00
73700;BME280;62005;50.082;8.988;2024-02-15T11:24:25;100769.09;;;13.89;100.00
73700;BME280;62005;50.082;8.988;2024-02-15T11:27:00;100780.22;;;13.99;100.00
73700;BME280;62005;50.082;8.988;2024-02-15T11:30:00;100776.44;;;14.00;100.00
73700;BME280;62005;50.082;8.988;2024-02-15T11:35:12;100774.44;;;14.07;100.00
73700;BME280;62005;50.082;8.988;2024-02-15T11:40:17;100770.78;;;14.13;100.00
73700;BME280;62005;50.082;8.988;2024-02-15T11:42:46;100754.94;;;14.10;100.00
73700;BME280;62005;50.082;8.988;2024-02-15T11:45:16;100763.22;;;14.15;100.00
73700;BME280;62005;50.082;8.988;2024-02-15T11:47:47;100741.94;;;14.12;100.00
73700;BME280;62005;50.082;8.988;2024-02-15T11:50:15;100748.09;;;14.19;100.00
73700;BME280;62005;50.082;8.988;2024-02-15T11:52:41;100731.28;;;14.22;100.00
73700;BME280;62005;50.082;8.988;2024-02-15T11:55:11;100746.91;;;14.38;100.00
73700;BME280;62005;50.082;8.988;2024-02-15T11:57:41;100725.63;;;14.35;100.00
73700;BME280;62005;50.082;8.988;2024-02-15T12:00:24;100751.16;;;14.57;100.00
73700;BME280;62005;50.082;8.988;2024-02-15T12:03:09;100750.19;;;14.63;100.00
73700;BME280;62005;50.082;8.988;2024-02-15T12:05:54;100740.00;;;14.70;100.00
73700;BME280;62005;50.082;8.988;2024-02-15T12:08:39;100742.09;;;14.80;100.00
73700;BME280;62005;50.082;8.988;2024-02-15T12:11:23;100733.81;;;14.86;100.00
73700;BME280;62005;50.082;8.988;2024-02-15T12:14:11;100729.53;;;14.90;100.00
73700;BME280;62005;50.082;8.988;2024-02-15T12:17:03;100706.69;;;14.91;100.00
73700;BME280;62005;50.082;8.988;2024-02-15T12:19:49;100718.13;;;15.05;100.00
73700;BME280;62005;50.082;8.988;2024-02-15T12:22:17;100705.34;;;15.05;98.14
73700;BME280;62005;50.082;8.988;2024-02-15T12:24:52;100715.34;;;15.16;97.67
73700;BME280;62005;50.082;8.988;2024-02-15T12:27:18;100708.34;;;15.20;95.26
73700;BME280;62005;50.082;8.988;2024-02-15T12:29:45;100667.13;;;15.00;93.87
73700;BME280;62005;50.082;8.988;2024-02-15T12:32:20;100687.53;;;15.14;92.10
73700;BME280;62005;50.082;8.988;2024-02-15T12:34:45;100671.69;;;15.11;92.54
73700;BME280;62005;50.082;8.988;2024-02-15T12:37:12;100684.50;;;15.27;92.55
73700;BME280;62005;50.082;8.988;2024-02-15T12:39:38;100693.34;;;15.34;93.42
73700;BME280;62005;50.082;8.988;2024-02-15T12:42:06;100692.38;;;15.40;91.36
73700;BME280;62005;50.082;8.988;2024-02-15T12:44:32;100655.03;;;15.24;92.29
73700;BME280;62005;50.082;8.988;2024-02-15T12:46:59;100676.63;;;15.42;95.24
73700;BME280;62005;50.082;8.988;2024-02-15T12:51:54;100678.59;;;15.47;91.71
73700;BME280;62005;50.082;8.988;2024-02-15T12:54:39;100682.31;;;15.57;90.96